Time;durP1;ratioP1;P1;durP2;ratioP2;P2;SDS_P1;SDS_P2;PMS_P1;PMS_P2;Temp;Humidity;BMP_temperature;BMP_pressure;BME280_temperature;BME280_humidity;BME280_pressure;Samples;Min_cycle;Max_cycle;Signal;HPM_P1;HPM_P2
2021/01/22 00:01:47;;;;;;;0.30;0.30;;;20.60;44.50;;;;;;6221703;28;20026;-53
2021/01/22 00:04:47;;;;;;;0.38;0.30;;;20.60;44.50;;;;;;6221666;28;20049;-51
2021/01/22 00:07:48;;;;;;;0.55;0.40;;;20.60;44.50;;;;;;6220569;28;20034;-52
2021/01/22 00:10:49;;;;;;;0.68;0.30;;;20.60;44.50;;;;;;6203046;28;20053;-53
2021/01/22 00:13:50;;;;;;;0.30;0.30;;;20.60;44.50;;;;;;6221740;28;20084;-53
2021/01/22 00:16:50;;;;;;;0.60;0.30;;;20.60;44.60;;;;;;6221157;28;20037;-51
2021/01/22 00:19:51;;;;;;;0.73;0.40;;;20.50;44.40;;;;;;6221579;28;20041;-56
2021/01/22 00:22:52;;;;;;;0.50;0.38;;;20.50;44.50;;;;;;6221709;28;20029;-53
2021/01/22 00:25:53;;;;;;;0.40;0.22;;;20.50;44.50;;;;;;6221335;28;20069;-54
2021/01/22 00:28:54;;;;;;;0.60;0.40;;;20.50;44.40;;;;;;6221468;28;20124;-51
2021/01/22 00:31:54;;;;;;;0.47;0.30;;;20.50;44.50;;;;;;6220982;28;20030;-56
2021/01/22 00:34:55;;;;;;;0.50;0.30;;;20.50;44.50;;;;;;6221128;28;20057;-55
2021/01/22 00:37:55;;;;;;;0.32;0.25;;;20.50;44.50;;;;;;6217681;28;20030;-53
2021/01/22 00:40:56;;;;;;;0.40;0.25;;;20.50;44.50;;;;;;6196794;28;20026;-53
2021/01/22 00:43:57;;;;;;;0.40;0.38;;;20.50;44.50;;;;;;6196799;28;20038;-52
2021/01/22 00:46:57;;;;;;;0.40;0.30;;;20.50;44.50;;;;;;6205379;28;20033;-54
2021/01/22 00:49:58;;;;;;;1.10;0.52;;;20.50;44.50;;;;;;6221468;28;20081;-52
2021/01/22 00:52:58;;;;;;;0.77;0.43;;;20.50;44.50;;;;;;6221010;28;20764;-57
2021/01/22 00:55:59;;;;;;;0.30;0.25;;;20.50;44.40;;;;;;6220942;28;20022;-53
2021/01/22 00:59:00;;;;;;;0.63;0.45;;;20.50;44.50;;;;;;6220941;28;20493;-56
2021/01/22 01:02:01;;;;;;;0.57;0.50;;;20.50;44.40;;;;;;6220724;28;20037;-51
2021/01/22 01:05:05;;;;;;;0.40;0.35;;;20.50;44.50;;;;;;6208941;28;20057;-57
2021/01/22 01:08:06;;;;;;;0.20;0.20;;;20.50;44.50;;;;;;6208215;28;20031;-50
2021/01/22 01:11:07;;;;;;;0.40;0.40;;;20.50;44.50;;;;;;6196573;28;20062;-53
2021/01/22 01:14:07;;;;;;;1.58;0.47;;;20.50;44.50;;;;;;6219070;28;20052;-50
2021/01/22 01:17:08;;;;;;;1.30;0.50;;;20.50;44.50;;;;;;6220807;28;20026;-51
2021/01/22 01:20:10;;;;;;;0.47;0.30;;;20.50;44.50;;;;;;6220619;28;20040;-52
2021/01/22 01:23:14;;;;;;;0.75;0.50;;;20.50;44.50;;;;;;6206517;28;20030;-56
2021/01/22 01:26:15;;;;;;;0.30;0.30;;;20.50;44.50;;;;;;6196547;28;20116;-51
2021/01/22 01:29:15;;;;;;;0.40;0.20;;;20.50;44.50;;;;;;6217888;28;20060;-53
2021/01/22 01:32:16;;;;;;;0.25;0.25;;;20.50;44.50;;;;;;6220855;28;20026;-52
2021/01/22 01:35:17;;;;;;;0.55;0.50;;;20.50;44.50;;;;;;6220463;28;20061;-51
2021/01/22 01:38:20;;;;;;;0.50;0.40;;;20.40;44.40;;;;;;6220801;28;20030;-52
2021/01/22 01:41:22;;;;;;;0.50;0.30;;;20.50;44.50;;;;;;6221042;28;20394;-48
2021/01/22 01:44:23;;;;;;;0.75;0.50;;;20.50;44.50;;;;;;6221210;28;20061;-50
2021/01/22 01:47:23;;;;;;;0.93;0.60;;;20.50;44.50;;;;;;6220588;28;20095;-52
2021/01/22 01:50:24;;;;;;;0.50;0.30;;;20.50;44.50;;;;;;6220569;28;20034;-46
2021/01/22 01:53:26;;;;;;;0.70;0.40;;;20.50;44.50;;;;;;6210917;28;20042;-48
2021/01/22 01:56:27;;;;;;;0.47;0.47;;;20.40;44.40;;;;;;6197881;28;20559;-46
2021/01/22 01:59:28;;;;;;;0.50;0.45;;;20.40;44.40;;;;;;6196628;28;20018;-51
2021/01/22 02:02:28;;;;;;;0.70;0.40;;;20.40;44.40;;;;;;6196811;28;20487;-53
2021/01/22 02:05:29;;;;;;;0.57;0.40;;;20.40;44.40;;;;;;6197569;28;20069;-51
2021/01/22 02:08:31;;;;;;;1.08;0.52;;;20.40;44.50;;;;;;6202179;28;20061;-46
2021/01/22 02:11:32;;;;;;;0.50;0.40;;;20.40;44.50;;;;;;6202137;28;20069;-48
2021/01/22 02:14:35;;;;;;;0.20;0.20;;;20.40;44.50;;;;;;6202443;28;20034;-46
2021/01/22 02:17:37;;;;;;;0.40;0.35;;;20.40;44.50;;;;;;6202031;28;20023;-46
2021/01/22 02:21:09;;;;;;;0.70;0.50;;;20.40;44.60;;;;;;6201894;28;20026;-46
2021/01/22 02:24:20;;;;;;;0.30;0.30;;;20.40;44.50;;;;;;6201978;28;20047;-48
2021/01/22 02:27:22;;;;;;;0.32;0.30;;;20.40;44.50;;;;;;6200556;28;20511;-49
2021/01/22 02:30:22;;;;;;;0.40;0.30;;;20.40;44.50;;;;;;6222370;28;20433;-50
2021/01/22 02:33:23;;;;;;;0.60;0.30;;;20.40;44.50;;;;;;6224323;28;20025;-54
2021/01/22 02:36:26;;;;;;;0.77;0.40;;;20.40;44.50;;;;;;6223914;28;20101;-53
2021/01/22 02:39:31;;;;;;;0.25;0.20;;;20.40;44.40;;;;;;6223881;28;20026;-51
2021/01/22 02:42:32;;;;;;;0.30;0.30;;;20.40;44.40;;;;;;6223735;28;20514;-51
2021/01/22 02:45:33;;;;;;;0.32;0.30;;;20.40;44.50;;;;;;6223226;28;20030;-56
2021/01/22 02:48:34;;;;;;;0.60;0.38;;;20.40;44.40;;;;;;6219808;28;20102;-51
2021/01/22 02:51:35;;;;;;;0.28;0.28;;;20.40;44.40;;;;;;6199156;28;20022;-53
2021/01/22 02:54:36;;;;;;;0.40;0.30;;;20.40;44.60;;;;;;6199161;28;20022;-52
2021/01/22 02:57:56;;;;;;;0.35;0.20;;;20.30;44.40;;;;;;6199133;28;20023;-56
2021/01/22 03:01:03;;;;;;;0.45;0.38;;;20.40;44.50;;;;;;6219668;28;20029;-55
2021/01/22 03:04:09;;;;;;;0.28;0.28;;;20.40;44.50;;;;;;6223010;28;20050;-53
2021/01/22 03:07:16;;;;;;;0.30;0.30;;;20.40;44.50;;;;;;6223094;28;20022;-50
2021/01/22 03:10:20;;;;;;;0.70;0.43;;;20.40;44.50;;;;;;6216255;28;20045;-55
2021/01/22 03:13:22;;;;;;;0.88;0.50;;;20.40;44.40;;;;;;6223185;28;20044;-56
2021/01/22 03:16:25;;;;;;;0.40;0.30;;;20.30;44.30;;;;;;6222114;28;20033;-54
2021/01/22 03:19:25;;;;;;;0.20;0.20;;;20.30;44.30;;;;;;6221978;28;20475;-53
2021/01/22 03:22:26;;;;;;;0.45;0.40;;;20.30;44.30;;;;;;6222757;28;20038;-50
2021/01/22 03:25:26;;;;;;;0.55;0.35;;;20.30;44.40;;;;;;6222640;28;20084;-52
2021/01/22 03:28:27;;;;;;;0.30;0.20;;;20.30;44.30;;;;;;6222620;28;20033;-51
2021/01/22 03:31:27;;;;;;;0.20;0.20;;;20.40;44.40;;;;;;6222366;28;20025;-55
2021/01/22 03:34:28;;;;;;;0.40;0.30;;;20.30;44.30;;;;;;6222129;28;20033;-52
2021/01/22 03:37:28;;;;;;;0.52;0.30;;;20.30;44.30;;;;;;6222343;28;20036;-55
2021/01/22 03:40:29;;;;;;;0.30;0.20;;;20.30;44.30;;;;;;6222032;28;20055;-53
2021/01/22 03:43:30;;;;;;;0.22;0.20;;;20.30;44.30;;;;;;6222301;28;20067;-52
2021/01/22 03:46:30;;;;;;;0.63;0.40;;;20.30;44.40;;;;;;6221989;28;20049;-51
2021/01/22 03:49:32;;;;;;;0.40;0.40;;;20.30;44.40;;;;;;6221640;28;20041;-50
2021/01/22 03:52:33;;;;;;;0.73;0.40;;;20.30;44.40;;;;;;6222333;28;20022;-54
2021/01/22 03:55:33;;;;;;;0.35;0.30;;;20.30;44.30;;;;;;6211509;28;20105;-53
2021/01/22 03:58:34;;;;;;;0.30;0.30;;;20.30;44.30;;;;;;6197675;28;20030;-52
2021/01/22 04:01:35;;;;;;;0.22;0.22;;;20.30;44.30;;;;;;6197406;28;20030;-52
2021/01/22 04:04:35;;;;;;;0.55;0.30;;;20.30;44.30;;;;;;6198267;28;20117;-51
2021/01/22 04:07:36;;;;;;;0.30;0.30;;;20.30;44.40;;;;;;6221851;28;20030;-51
2021/01/22 04:10:36;;;;;;;0.45;0.30;;;20.30;44.30;;;;;;6206548;28;20093;-53
2021/01/22 04:13:38;;;;;;;0.55;0.30;;;20.30;44.30;;;;;;6222251;28;20026;-46
2021/01/22 04:16:38;;;;;;;0.60;0.30;;;20.30;44.30;;;;;;6222902;28;20033;-49
2021/01/22 04:19:39;;;;;;;0.32;0.30;;;20.30;44.30;;;;;;6208675;28;20022;-46
2021/01/22 04:22:39;;;;;;;0.20;0.20;;;20.30;44.30;;;;;;6198592;28;20069;-49
2021/01/22 04:25:40;;;;;;;0.45;0.30;;;20.30;44.30;;;;;;6199180;28;20439;-50
2021/01/22 04:28:41;;;;;;;0.50;0.30;;;20.30;44.30;;;;;;6198033;28;20755;-47
2021/01/22 04:31:42;;;;;;;0.20;0.20;;;20.30;44.30;;;;;;6199088;28;20364;-51
2021/01/22 04:34:42;;;;;;;0.30;0.30;;;20.30;44.90;;;;;;6198147;28;20451;-51
2021/01/22 04:37:43;;;;;;;0.75;0.30;;;20.30;44.30;;;;;;6219550;28;20072;-52
2021/01/22 04:40:45;;;;;;;0.30;0.30;;;20.30;44.30;;;;;;6215038;28;20033;-53
2021/01/22 04:43:45;;;;;;;0.30;0.30;;;20.30;44.30;;;;;;6197149;28;20122;-52
2021/01/22 04:46:46;;;;;;;0.35;0.20;;;20.30;44.30;;;;;;6208638;28;20040;-51
2021/01/22 04:49:50;;;;;;;0.30;0.30;;;20.30;44.30;;;;;;6220738;28;20038;-50
2021/01/22 04:52:54;;;;;;;0.28;0.28;;;20.30;44.30;;;;;;6201323;28;20022;-54
2021/01/22 04:55:55;;;;;;;0.30;0.30;;;20.30;44.30;;;;;;6199902;28;20022;-50
2021/01/22 04:58:59;;;;;;;0.32;0.25;;;20.30;44.30;;;;;;6219521;28;20037;-55
2021/01/22 05:02:01;;;;;;;0.40;0.40;;;20.30;44.30;;;;;;6220731;28;20022;-53
2021/01/22 05:05:02;;;;;;;0.32;0.20;;;20.30;44.30;;;;;;6220835;28;20061;-52
2021/01/22 05:08:03;;;;;;;0.70;0.30;;;20.30;44.30;;;;;;6217854;28;20379;-50
2021/01/22 05:11:04;;;;;;;0.73;0.30;;;20.30;44.30;;;;;;6198767;28;20027;-55
2021/01/22 05:14:05;;;;;;;0.20;0.20;;;20.30;44.20;;;;;;6220901;28;20509;-51
2021/01/22 05:17:07;;;;;;;0.38;0.30;;;20.40;44.20;;;;;;6210500;28;20098;-56
2021/01/22 05:20:09;;;;;;;0.20;0.20;;;20.40;44.20;;;;;;6196516;28;20019;-53
2021/01/22 05:23:10;;;;;;;0.55;0.30;;;20.40;44.20;;;;;;6196431;28;20600;-55
2021/01/22 05:26:14;;;;;;;0.60;0.28;;;20.40;44.20;;;;;;6197759;28;20542;-51
2021/01/22 05:29:15;;;;;;;0.47;0.40;;;20.40;44.20;;;;;;6220431;28;20037;-51
2021/01/22 05:32:28;;;;;;;0.25;0.25;;;20.40;44.20;;;;;;6220272;28;20046;-56
2021/01/22 05:35:30;;;;;;;0.70;0.30;;;20.40;44.20;;;;;;6220495;28;20022;-49
2021/01/22 05:38:41;;;;;;;0.65;0.30;;;20.40;44.20;;;;;;6220227;28;20048;-52
2021/01/22 05:41:50;;;;;;;0.45;0.35;;;20.40;44.20;;;;;;6219719;28;20034;-51
2021/01/22 05:44:53;;;;;;;0.47;0.32;;;20.40;44.20;;;;;;6201000;28;20038;-55
2021/01/22 05:47:53;;;;;;;0.20;0.20;;;20.40;44.20;;;;;;6213368;28;20037;-55
2021/01/22 05:50:59;;;;;;;0.20;0.20;;;20.40;44.20;;;;;;6224771;28;20025;-55
2021/01/22 05:54:00;;;;;;;0.38;0.22;;;20.40;44.20;;;;;;6203988;28;20361;-51
2021/01/22 05:57:01;;;;;;;0.45;0.20;;;20.40;44.20;;;;;;6204795;28;20037;-55
2021/01/22 06:00:13;;;;;;;0.20;0.20;;;20.40;44.20;;;;;;6224315;28;20483;-53
2021/01/22 06:03:22;;;;;;;0.85;0.40;;;20.40;44.20;;;;;;6210350;28;20073;-51
2021/01/22 06:06:31;;;;;;;0.20;0.20;;;20.40;44.20;;;;;;6200242;28;20022;-53
2021/01/22 06:09:33;;;;;;;0.10;0.10;;;20.40;44.20;;;;;;6208454;28;20077;-53
2021/01/22 06:12:34;;;;;;;0.30;0.20;;;20.40;44.20;;;;;;6206810;28;20029;-57
2021/01/22 06:15:37;;;;;;;0.20;0.20;;;20.40;44.90;;;;;;6224319;28;20030;-53
2021/01/22 06:18:39;;;;;;;0.30;0.20;;;20.50;44.30;;;;;;6209827;28;20471;-53
2021/01/22 06:21:48;;;;;;;0.28;0.20;;;20.50;44.30;;;;;;6199978;28;20022;-57
2021/01/22 06:24:49;;;;;;;0.63;0.10;;;20.50;44.30;;;;;;6223132;28;20029;-55
2021/01/22 06:27:51;;;;;;;0.30;0.22;;;20.50;44.30;;;;;;6220154;28;20041;-50
2021/01/22 06:30:53;;;;;;;0.20;0.20;;;20.40;44.30;;;;;;6199942;28;20081;-53
2021/01/22 06:33:56;;;;;;;0.20;0.20;;;20.50;44.30;;;;;;6214064;28;20475;-51
2021/01/22 06:36:56;;;;;;;18.02;0.60;;;20.50;44.20;;;;;;6195192;28;20082;-51
2021/01/22 06:40:02;;;;;;;4.10;0.60;;;20.50;44.60;;;;;;6195152;28;20034;-51
2021/01/22 06:43:03;;;;;;;5.82;0.30;;;20.60;44.10;;;;;;6194275;28;20045;-55
2021/01/22 06:46:12;;;;;;;4.13;0.70;;;20.70;44.10;;;;;;6197305;28;20027;-51
2021/01/22 06:49:14;;;;;;;1.30;0.45;;;20.70;44.40;;;;;;6200752;28;20041;-54
2021/01/22 06:52:15;;;;;;;2.38;0.38;;;20.80;44.30;;;;;;6197684;28;20034;-55
2021/01/22 06:55:16;;;;;;;0.95;0.40;;;20.80;44.30;;;;;;6201458;28;20029;-54
2021/01/22 06:58:30;;;;;;;5.82;0.50;;;20.90;44.50;;;;;;6205989;28;20034;-55
2021/01/22 07:01:33;;;;;;;1.75;0.30;;;20.90;44.60;;;;;;6188290;28;20396;-53
2021/01/22 07:04:35;;;;;;;10.25;0.52;;;20.90;45.00;;;;;;6197719;28;20535;-52
2021/01/22 07:07:48;;;;;;;12.65;0.60;;;20.90;44.80;;;;;;6195906;28;20057;-59
2021/01/22 07:10:56;;;;;;;7.43;1.02;;;21.00;45.00;;;;;;6196667;28;20440;-60
2021/01/22 07:13:57;;;;;;;2.70;0.40;;;21.00;44.70;;;;;;6196596;28;20022;-60
2021/01/22 07:17:01;;;;;;;8.15;0.70;;;21.00;44.70;;;;;;6197141;28;20431;-61
2021/01/22 07:20:09;;;;;;;7.15;0.70;;;21.00;45.10;;;;;;6211487;28;20035;-60
2021/01/22 07:23:15;;;;;;;9.43;0.45;;;21.00;44.60;;;;;;6207420;28;20031;-59
2021/01/22 07:26:17;;;;;;;6.15;0.60;;;21.00;44.70;;;;;;6173247;28;20031;-58
2021/01/22 07:29:27;;;;;;;1.95;0.50;;;20.90;44.60;;;;;;6203064;28;20030;-59
2021/01/22 07:32:28;;;;;;;4.50;0.68;;;21.00;44.70;;;;;;6195682;28;20022;-60
2021/01/22 07:35:30;;;;;;;5.57;0.57;;;21.00;45.00;;;;;;6213109;28;20026;-58
2021/01/22 07:38:32;;;;;;;4.07;0.52;;;21.00;44.70;;;;;;6209853;28;20027;-61
2021/01/22 07:41:32;;;;;;;11.85;0.98;;;21.00;45.70;;;;;;6215547;28;20440;-57
2021/01/22 07:44:34;;;;;;;3.47;0.50;;;21.00;45.10;;;;;;6205407;28;20138;-57
2021/01/22 07:47:37;;;;;;;10.57;1.45;;;21.00;44.80;;;;;;6195683;28;20026;-59
2021/01/22 07:50:38;;;;;;;10.60;1.27;;;21.00;44.80;;;;;;6210383;28;20030;-61
2021/01/22 07:53:38;;;;;;;9.07;1.50;;;21.00;44.80;;;;;;6219944;28;20030;-59
2021/01/22 07:56:40;;;;;;;7.47;1.60;;;21.00;44.70;;;;;;6219190;28;20125;-60
2021/01/22 07:59:42;;;;;;;8.68;1.65;;;21.00;44.60;;;;;;6209286;28;20120;-59
2021/01/22 08:02:58;;;;;;;2.10;0.90;;;21.00;44.60;;;;;;6218354;28;20084;-61
2021/01/22 08:05:59;;;;;;;9.05;2.30;;;21.00;44.50;;;;;;6211724;28;20033;-59
2021/01/22 08:09:07;;;;;;;5.50;1.40;;;21.00;44.70;;;;;;6213085;28;20106;-60
2021/01/22 08:12:11;;;;;;;9.13;2.13;;;21.00;44.40;;;;;;6197360;28;20321;-59
2021/01/22 08:15:19;;;;;;;6.15;1.92;;;21.00;45.20;;;;;;6203475;28;20030;-60
2021/01/22 08:18:20;;;;;;;13.15;2.55;;;21.00;44.40;;;;;;6214733;28;20503;-60
2021/01/22 08:21:21;;;;;;;8.27;2.67;;;21.00;44.40;;;;;;6212254;28;20041;-60
2021/01/22 08:24:22;;;;;;;8.93;2.03;;;21.00;44.40;;;;;;6209048;28;20030;-59
2021/01/22 08:27:24;;;;;;;12.52;2.47;;;21.00;44.40;;;;;;6219269;28;20030;-60
2021/01/22 08:30:25;;;;;;;9.55;2.63;;;21.10;44.60;;;;;;6204287;28;20484;-59
2021/01/22 08:33:26;;;;;;;4.50;2.03;;;21.00;44.50;;;;;;6194600;28;20097;-59
2021/01/22 08:36:28;;;;;;;10.40;1.92;;;21.00;44.60;;;;;;6195053;28;20076;-60
2021/01/22 08:39:58;;;;;;;4.38;1.88;;;21.10;44.80;;;;;;6194678;28;20410;-61
2021/01/22 08:43:03;;;;;;;13.50;2.13;;;21.10;45.40;;;;;;6218706;28;20109;-59
2021/01/22 08:46:10;;;;;;;5.47;2.30;;;21.10;44.70;;;;;;6207395;28;20277;-60
2021/01/22 08:49:12;;;;;;;15.95;2.30;;;21.00;44.80;;;;;;6212260;28;20564;-62
2021/01/22 08:52:16;;;;;;;17.13;3.63;;;21.10;45.40;;;;;;6214986;28;20034;-61
2021/01/22 08:55:20;;;;;;;7.70;2.35;;;21.10;44.90;;;;;;6208364;28;20502;-60
2021/01/22 08:58:21;;;;;;;6.15;1.98;;;21.20;44.70;;;;;;6218403;28;20470;-59
2021/01/22 09:01:22;;;;;;;15.45;2.10;;;21.10;44.70;;;;;;6206828;28;20049;-59
2021/01/22 09:04:31;;;;;;;13.95;2.47;;;21.10;45.50;;;;;;6220070;28;20050;-60
2021/01/22 09:07:31;;;;;;;7.15;1.90;;;21.00;45.00;;;;;;6219484;28;20080;-61
2021/01/22 09:10:32;;;;;;;6.78;2.08;;;21.00;45.20;;;;;;6219333;28;20494;-60
2021/01/22 09:13:33;;;;;;;6.07;2.17;;;20.90;45.20;;;;;;6219688;28;20029;-60
2021/01/22 09:16:47;;;;;;;7.95;1.92;;;20.90;45.30;;;;;;6222673;28;20501;-60
2021/01/22 09:19:52;;;;;;;5.13;1.80;;;20.90;45.20;;;;;;6224143;28;20178;-59
2021/01/22 09:23:04;;;;;;;4.47;1.83;;;20.90;45.20;;;;;;6224613;28;20029;-59
2021/01/22 09:26:06;;;;;;;10.32;1.98;;;20.90;45.10;;;;;;6224881;28;20435;-59
2021/01/22 09:29:06;;;;;;;6.88;2.00;;;20.80;45.00;;;;;;6224420;28;20025;-60
2021/01/22 09:32:07;;;;;;;4.57;1.65;;;20.80;45.00;;;;;;6211786;28;20031;-61
2021/01/22 09:35:08;;;;;;;4.50;1.58;;;20.80;44.90;;;;;;6199679;28;20038;-56
2021/01/22 09:38:09;;;;;;;5.35;1.92;;;20.80;44.90;;;;;;6199611;28;20065;-61
2021/01/22 09:41:09;;;;;;;3.70;1.40;;;20.80;45.50;;;;;;6203098;28;20037;-60
2021/01/22 09:44:10;;;;;;;6.70;1.65;;;20.80;44.80;;;;;;6223622;28;20483;-59
2021/01/22 09:47:12;;;;;;;4.70;1.60;;;20.80;44.80;;;;;;6223761;28;20029;-59
2021/01/22 09:50:14;;;;;;;4.22;1.60;;;20.80;44.80;;;;;;6223733;28;20108;-59
2021/01/22 09:53:15;;;;;;;4.82;1.60;;;20.80;44.90;;;;;;6223598;28;20049;-60
2021/01/22 09:56:15;;;;;;;3.78;1.52;;;20.80;44.90;;;;;;6223428;28;20057;-59
2021/01/22 09:59:16;;;;;;;3.88;1.50;;;20.80;44.90;;;;;;6202191;28;20031;-60
2021/01/22 10:02:16;;;;;;;3.58;1.65;;;20.80;44.90;;;;;;6208658;28;20037;-60
2021/01/22 10:05:18;;;;;;;5.47;1.85;;;20.80;44.80;;;;;;6223333;28;20036;-59
2021/01/22 10:08:20;;;;;;;4.95;1.73;;;20.80;44.90;;;;;;6204094;28;20117;-60
2021/01/22 10:11:21;;;;;;;5.43;1.50;;;20.70;45.00;;;;;;6199670;28;20106;-60
2021/01/22 10:14:21;;;;;;;5.20;1.65;;;20.70;45.00;;;;;;6223673;28;20029;-60
2021/01/22 10:17:22;;;;;;;3.15;1.50;;;20.70;44.90;;;;;;6222965;28;20506;-57
2021/01/22 10:20:22;;;;;;;4.10;1.60;;;20.70;45.00;;;;;;6222508;28;20045;-56
2021/01/22 10:23:23;;;;;;;2.58;1.35;;;20.70;45.00;;;;;;6221778;28;20430;-58
2021/01/22 10:26:24;;;;;;;2.92;1.35;;;20.70;45.00;;;;;;6222722;28;20121;-58
2021/01/22 10:29:25;;;;;;;4.60;1.25;;;20.70;44.80;;;;;;6224465;28;20089;-59
2021/01/22 10:32:25;;;;;;;2.47;1.48;;;20.70;44.90;;;;;;6225052;28;20541;-60
2021/01/22 10:35:26;;;;;;;2.25;1.13;;;20.70;45.10;;;;;;6224950;28;20084;-59
2021/01/22 10:38:28;;;;;;;3.90;1.15;;;20.70;44.90;;;;;;6225018;28;20026;-58
2021/01/22 10:41:28;;;;;;;4.03;1.40;;;20.70;45.00;;;;;;6224671;28;20054;-60
2021/01/22 10:44:29;;;;;;;4.53;1.50;;;20.70;45.00;;;;;;6224492;28;20026;-57
2021/01/22 10:47:30;;;;;;;2.22;1.10;;;20.70;45.00;;;;;;6224405;28;20054;-58
2021/01/22 10:50:31;;;;;;;2.70;1.17;;;20.70;45.00;;;;;;6224772;28;20475;-59
2021/01/22 10:53:33;;;;;;;2.97;1.20;;;20.70;45.00;;;;;;6224509;28;20029;-58
2021/01/22 10:56:34;;;;;;;2.45;1.10;;;20.60;44.90;;;;;;6224321;28;20044;-58
2021/01/22 10:59:35;;;;;;;3.47;1.10;;;20.70;45.00;;;;;;6224161;28;20041;-58
2021/01/22 11:02:35;;;;;;;2.38;1.20;;;20.70;45.70;;;;;;6224281;28;20069;-55
2021/01/22 11:05:37;;;;;;;2.47;0.90;;;20.70;45.00;;;;;;6224188;28;20426;-58
2021/01/22 11:08:38;;;;;;;2.10;1.00;;;20.60;44.90;;;;;;6224079;28;20080;-58
2021/01/22 11:11:39;;;;;;;2.45;1.20;;;20.60;44.90;;;;;;6224281;28;20037;-59
2021/01/22 11:14:44;;;;;;;4.60;1.33;;;20.60;44.90;;;;;;6224055;28;20022;-56
2021/01/22 11:17:45;;;;;;;3.50;1.20;;;20.60;44.90;;;;;;6223787;28;20030;-57
2021/01/22 11:20:46;;;;;;;3.65;1.73;;;20.60;44.80;;;;;;6223556;28;20029;-58
2021/01/22 11:23:46;;;;;;;4.07;1.10;;;20.60;44.90;;;;;;6223861;28;20036;-58
2021/01/22 11:26:47;;;;;;;1.45;1.00;;;20.60;44.90;;;;;;6223528;28;20033;-58
2021/01/22 11:29:47;;;;;;;1.83;0.80;;;20.60;44.90;;;;;;6221994;28;20025;-59
2021/01/22 11:32:48;;;;;;;2.00;1.13;;;20.60;44.90;;;;;;6223671;28;20022;-59
2021/01/22 11:35:49;;;;;;;1.45;0.80;;;20.70;44.80;;;;;;6223171;28;20022;-58
2021/01/22 11:38:50;;;;;;;1.05;0.75;;;20.70;44.80;;;;;;6221444;28;20030;-59
2021/01/22 11:41:51;;;;;;;2.60;1.30;;;20.70;44.70;;;;;;6223367;28;20092;-58
2021/01/22 11:44:51;;;;;;;1.70;0.93;;;20.70;44.60;;;;;;6223333;28;20062;-60
2021/01/22 11:47:52;;;;;;;1.17;0.68;;;20.70;44.60;;;;;;6223390;28;20104;-58
2021/01/22 11:50:55;;;;;;;3.35;1.02;;;20.80;44.70;;;;;;6223045;28;20022;-59
2021/01/22 11:53:55;;;;;;;1.95;0.88;;;20.70;44.60;;;;;;6221678;28;20021;-58
2021/01/22 11:56:56;;;;;;;1.88;1.00;;;20.70;44.60;;;;;;6221713;28;20521;-59
2021/01/22 11:59:56;;;;;;;0.90;0.70;;;20.80;44.70;;;;;;6222844;28;20390;-58
2021/01/22 12:02:57;;;;;;;1.85;0.93;;;20.70;44.60;;;;;;6222876;28;20411;-59
2021/01/22 12:05:59;;;;;;;2.15;0.80;;;20.70;44.60;;;;;;6222746;28;20025;-60
2021/01/22 12:09:00;;;;;;;2.45;1.33;;;20.80;44.70;;;;;;6222495;28;20076;-56
2021/01/22 12:12:01;;;;;;;1.17;0.65;;;20.80;44.60;;;;;;6222693;28;20060;-59
2021/01/22 12:15:01;;;;;;;1.80;0.80;;;20.80;44.70;;;;;;6222479;28;20109;-59
2021/01/22 12:18:02;;;;;;;1.40;0.73;;;20.70;44.60;;;;;;6222245;28;20056;-59
2021/01/22 12:21:06;;;;;;;0.82;0.70;;;20.70;44.60;;;;;;6222550;28;20105;-59
2021/01/22 12:24:07;;;;;;;1.15;0.70;;;20.80;44.60;;;;;;6222595;28;20029;-60
2021/01/22 12:27:07;;;;;;;1.02;0.82;;;20.80;44.70;;;;;;6222637;28;20378;-59
2021/01/22 12:30:09;;;;;;;1.40;0.60;;;20.80;44.70;;;;;;6221957;28;20026;-59
2021/01/22 12:33:11;;;;;;;0.93;0.60;;;20.70;44.60;;;;;;6222658;28;20029;-59
2021/01/22 12:36:11;;;;;;;1.45;0.70;;;20.80;44.60;;;;;;6222394;28;20030;-56
2021/01/22 12:39:12;;;;;;;1.10;0.82;;;20.70;44.60;;;;;;6222095;28;20036;-59
2021/01/22 12:42:13;;;;;;;1.20;0.70;;;20.80;44.70;;;;;;6222106;28;20041;-59
2021/01/22 12:45:15;;;;;;;1.55;0.75;;;20.80;44.60;;;;;;6222133;28;20032;-59
2021/01/22 12:48:16;;;;;;;1.55;0.82;;;20.80;44.60;;;;;;6222410;28;20048;-59
2021/01/22 12:51:17;;;;;;;1.33;0.90;;;20.80;44.60;;;;;;6220441;28;20487;-59
2021/01/22 12:54:18;;;;;;;1.52;0.80;;;20.80;44.60;;;;;;6221983;28;20050;-58
2021/01/22 12:57:19;;;;;;;1.45;0.88;;;20.80;44.70;;;;;;6221833;28;20058;-56
2021/01/22 13:00:20;;;;;;;1.65;0.80;;;20.80;44.60;;;;;;6221894;28;20521;-55
2021/01/22 13:03:20;;;;;;;1.23;0.70;;;20.80;44.60;;;;;;6221667;28;20057;-58
2021/01/22 13:06:21;;;;;;;2.28;0.95;;;20.70;44.50;;;;;;6221900;28;20657;-59
2021/01/22 13:09:22;;;;;;;0.98;0.65;;;20.70;44.50;;;;;;6221611;28;20049;-56
2021/01/22 13:12:23;;;;;;;1.55;0.60;;;20.80;44.60;;;;;;6221722;28;20034;-58
2021/01/22 13:15:23;;;;;;;1.20;0.70;;;20.80;44.60;;;;;;6221611;28;20110;-56
2021/01/22 13:18:24;;;;;;;1.10;0.70;;;20.70;44.50;;;;;;6221916;28;20069;-58
2021/01/22 13:21:25;;;;;;;0.95;0.60;;;20.70;44.60;;;;;;6221516;28;20395;-58
2021/01/22 13:24:28;;;;;;;0.88;0.68;;;20.80;44.50;;;;;;6221698;28;20032;-59
2021/01/22 13:27:28;;;;;;;2.03;0.63;;;20.70;44.50;;;;;;6221508;28;20479;-58
2021/01/22 13:30:29;;;;;;;1.05;0.70;;;20.70;44.50;;;;;;6219958;28;20026;-58
2021/01/22 13:33:30;;;;;;;0.82;0.50;;;20.70;44.50;;;;;;6221446;28;20479;-59
2021/01/22 13:36:31;;;;;;;1.40;0.68;;;20.70;44.50;;;;;;6221314;28;20030;-59
2021/01/22 13:39:32;;;;;;;0.85;0.50;;;20.70;44.50;;;;;;6221517;28;20029;-58
2021/01/22 13:42:33;;;;;;;0.60;0.50;;;20.70;44.50;;;;;;6221418;28;20399;-59
2021/01/22 13:45:35;;;;;;;0.93;0.55;;;20.70;44.50;;;;;;6221422;28;20076;-59
2021/01/22 13:48:35;;;;;;;0.80;0.60;;;20.70;44.50;;;;;;6221396;28;20041;-60
2021/01/22 13:51:36;;;;;;;0.75;0.55;;;20.70;44.60;;;;;;6220998;28;20018;-59
2021/01/22 13:54:36;;;;;;;1.40;0.60;;;20.70;44.50;;;;;;6221206;28;20033;-58
2021/01/22 13:57:39;;;;;;;1.20;0.73;;;20.70;44.50;;;;;;6221150;28;20454;-59
2021/01/22 14:00:39;;;;;;;0.70;0.50;;;20.70;44.50;;;;;;6219641;28;20033;-59
2021/01/22 14:03:40;;;;;;;0.75;0.70;;;20.70;44.50;;;;;;6225102;28;20038;-58
2021/01/22 14:06:40;;;;;;;0.70;0.50;;;20.70;44.60;;;;;;6225289;28;20136;-59
2021/01/22 14:09:41;;;;;;;1.52;0.95;;;20.70;44.60;;;;;;6225284;28;20025;-58
2021/01/22 14:12:41;;;;;;;0.43;0.40;;;20.70;44.50;;;;;;6225525;28;20040;-56
2021/01/22 14:15:42;;;;;;;1.10;0.63;;;20.70;44.60;;;;;;6225142;28;20022;-57
2021/01/22 14:18:43;;;;;;;1.23;0.70;;;20.70;44.50;;;;;;6225302;28;20101;-59
2021/01/22 14:21:44;;;;;;;1.20;0.45;;;20.70;44.50;;;;;;6225218;28;20391;-59
2021/01/22 14:24:45;;;;;;;0.80;0.45;;;20.70;44.50;;;;;;6224832;28;20022;-58
2021/01/22 14:27:46;;;;;;;1.83;0.70;;;20.70;44.50;;;;;;6224878;28;20545;-59
2021/01/22 14:30:46;;;;;;;0.90;0.50;;;20.70;44.50;;;;;;6225152;28;20411;-58
2021/01/22 14:33:47;;;;;;;0.70;0.52;;;20.70;44.50;;;;;;6225235;28;20017;-54
2021/01/22 14:36:49;;;;;;;1.13;0.55;;;20.70;44.50;;;;;;6223208;28;20018;-62
2021/01/22 14:39:50;;;;;;;0.93;0.50;;;20.70;44.50;;;;;;6223723;28;20112;-57
2021/01/22 14:42:51;;;;;;;0.82;0.60;;;20.70;44.50;;;;;;6212932;28;20491;-59
2021/01/22 14:45:52;;;;;;;0.77;0.60;;;20.70;44.50;;;;;;6196984;28;20030;-58
2021/01/22 14:48:52;;;;;;;0.70;0.40;;;20.70;44.50;;;;;;6213580;28;20036;-58
2021/01/22 14:51:53;;;;;;;0.60;0.50;;;20.70;44.50;;;;;;6198468;28;20030;-58
2021/01/22 14:54:56;;;;;;;0.40;0.40;;;20.70;44.50;;;;;;6222424;28;20029;-59
2021/01/22 14:57:56;;;;;;;0.43;0.35;;;20.70;44.50;;;;;;6222074;28;20061;-56
2021/01/22 15:00:58;;;;;;;0.95;0.60;;;20.70;44.60;;;;;;6221975;28;20041;-59
2021/01/22 15:03:58;;;;;;;0.65;0.35;;;20.70;44.50;;;;;;6221873;28;20297;-58
2021/01/22 15:06:59;;;;;;;0.45;0.30;;;20.70;44.50;;;;;;6222279;28;20037;-59
2021/01/22 15:10:00;;;;;;;0.63;0.40;;;20.70;44.40;;;;;;6203132;28;20030;-57
2021/01/22 15:13:00;;;;;;;0.60;0.50;;;20.70;44.50;;;;;;6202722;28;20026;-59
2021/01/22 15:16:01;;;;;;;0.82;0.52;;;20.70;44.50;;;;;;6221838;28;20080;-59
2021/01/22 15:19:01;;;;;;;1.42;0.55;;;20.70;44.60;;;;;;6221877;28;20076;-58
2021/01/22 15:22:02;;;;;;;0.47;0.32;;;20.70;44.50;;;;;;6221764;28;20069;-56
2021/01/22 15:25:04;;;;;;;1.20;0.70;;;20.70;44.50;;;;;;6221812;28;20111;-57
2021/01/22 15:28:05;;;;;;;0.63;0.40;;;20.70;44.50;;;;;;6221403;28;20463;-58
2021/01/22 15:31:06;;;;;;;0.35;0.30;;;20.70;44.50;;;;;;6221347;28;20040;-59
2021/01/22 15:34:07;;;;;;;0.88;0.32;;;20.70;44.50;;;;;;6221591;28;20033;-59
2021/01/22 15:37:08;;;;;;;7.55;0.68;;;20.70;44.50;;;;;;6191152;28;20030;-56
2021/01/22 15:40:12;;;;;;;18.50;0.90;;;20.70;44.60;;;;;;6193170;28;20030;-57
2021/01/22 15:43:13;;;;;;;4.07;0.73;;;20.70;45.00;;;;;;6194545;28;20791;-55
2021/01/22 15:46:13;;;;;;;12.32;0.80;;;20.70;44.60;;;;;;6217020;28;20026;-59